Time;durP1;ratioP1;P1;durP2;ratioP2;P2;SDS_P1;SDS_P2;PMS_P1;PMS_P2;Temp;Humidity;BMP_temperature;BMP_pressure;BME280_temperature;BME280_humidity;BME280_pressure;Samples;Min_cycle;Max_cycle;Signal;HPM_P1;HPM_P2
2021/09/02 00:02:10;;;;;;;12.93;6.97;;;22.30;60.70;;;;;;6166455;28;80488;-62
2021/09/02 00:05:10;;;;;;;12.38;7.53;;;22.30;60.60;;;;;;6174898;28;83343;-63
2021/09/02 00:08:11;;;;;;;12.02;7.30;;;22.30;60.70;;;;;;6160345;28;81020;-63
2021/09/02 00:11:11;;;;;;;13.20;7.93;;;22.30;60.70;;;;;;6173138;28;80782;-63
2021/09/02 00:14:11;;;;;;;11.30;7.30;;;22.30;60.70;;;;;;6161300;28;80902;-63
2021/09/02 00:17:12;;;;;;;13.05;7.85;;;22.30;60.70;;;;;;6182172;28;81541;-63
2021/09/02 00:20:12;;;;;;;9.98;6.90;;;22.30;60.70;;;;;;6192366;28;80565;-62
2021/09/02 00:23:13;;;;;;;11.55;7.15;;;22.30;60.50;;;;;;6162252;28;81146;-62
2021/09/02 00:26:14;;;;;;;11.98;7.45;;;22.30;60.60;;;;;;6164695;28;81538;-62
2021/09/02 00:29:15;;;;;;;14.20;7.55;;;22.30;60.90;;;;;;6167624;28;80668;-61
2021/09/02 00:32:17;;;;;;;11.80;7.80;;;22.30;60.50;;;;;;6162698;28;81523;-61
2021/09/02 00:35:18;;;;;;;11.02;7.13;;;22.30;60.50;;;;;;6173704;28;80907;-62
2021/09/02 00:38:19;;;;;;;12.30;7.43;;;22.30;60.50;;;;;;6160288;28;81883;-61
2021/09/02 00:41:19;;;;;;;12.80;7.50;;;22.30;60.50;;;;;;6166212;28;80939;-61
2021/09/02 00:44:20;;;;;;;11.27;7.68;;;22.30;60.70;;;;;;6167393;28;80826;-61
2021/09/02 00:47:20;;;;;;;13.52;7.75;;;22.30;60.70;;;;;;6169705;28;80379;-61
2021/09/02 00:50:21;;;;;;;10.32;6.93;;;22.30;60.90;;;;;;6168879;28;80213;-62
2021/09/02 00:53:21;;;;;;;10.95;6.82;;;22.30;60.80;;;;;;6178556;28;81080;-62
2021/09/02 00:56:22;;;;;;;12.13;7.32;;;22.30;60.70;;;;;;6167081;28;80540;-61
2021/09/02 00:59:22;;;;;;;12.98;7.43;;;22.30;60.50;;;;;;6165565;28;81579;-62
2021/09/02 01:02:23;;;;;;;10.55;7.25;;;22.30;60.70;;;;;;6163767;28;82303;-61
2021/09/02 01:05:23;;;;;;;11.27;7.15;;;22.30;60.60;;;;;;6160463;28;80749;-62
2021/09/02 01:08:24;;;;;;;13.13;7.65;;;22.30;60.90;;;;;;6157168;28;81356;-62
2021/09/02 01:11:24;;;;;;;12.55;7.50;;;22.30;60.40;;;;;;6161640;28;80885;-62
2021/09/02 01:14:25;;;;;;;12.13;7.80;;;22.30;60.30;;;;;;6162629;28;81018;-62
2021/09/02 01:17:25;;;;;;;13.10;8.05;;;22.30;60.70;;;;;;6162831;28;80948;-62
2021/09/02 01:20:26;;;;;;;13.18;7.75;;;22.30;60.60;;;;;;6164648;28;80820;-62
2021/09/02 01:23:26;;;;;;;11.98;8.07;;;22.30;60.60;;;;;;6162902;28;80415;-62
2021/09/02 01:26:27;;;;;;;12.10;7.47;;;22.30;60.60;;;;;;6161044;28;81418;-62
2021/09/02 01:29:28;;;;;;;11.77;7.35;;;22.30;60.70;;;;;;6161086;28;80435;-63
2021/09/02 01:32:28;;;;;;;11.18;7.53;;;22.30;60.50;;;;;;6174802;28;80905;-62
2021/09/02 01:35:32;;;;;;;13.07;7.20;;;22.30;60.70;;;;;;6173035;28;80550;-62
2021/09/02 01:38:32;;;;;;;13.15;7.05;;;22.30;60.50;;;;;;6152712;28;83064;-62
2021/09/02 01:41:33;;;;;;;10.63;6.45;;;22.30;60.70;;;;;;6158260;28;80985;-62
2021/09/02 01:44:33;;;;;;;13.00;7.10;;;22.30;60.60;;;;;;6160424;28;80517;-62
2021/09/02 01:47:34;;;;;;;11.05;7.28;;;22.30;60.80;;;;;;6170898;28;80962;-62
2021/09/02 01:50:34;;;;;;;12.30;7.72;;;22.20;60.40;;;;;;6164190;28;80743;-61
2021/09/02 01:53:35;;;;;;;11.73;7.50;;;22.30;60.40;;;;;;6168105;28;81544;-62
2021/09/02 01:56:35;;;;;;;11.73;6.55;;;22.30;60.40;;;;;;6159842;28;80730;-62
2021/09/02 01:59:36;;;;;;;14.48;7.85;;;22.20;60.60;;;;;;6161437;28;84389;-62
2021/09/02 02:02:36;;;;;;;12.75;7.22;;;22.20;60.40;;;;;;6167921;28;81239;-62
2021/09/02 02:05:37;;;;;;;12.05;7.40;;;22.30;60.60;;;;;;6157041;28;81829;-62
2021/09/02 02:08:37;;;;;;;11.60;7.35;;;22.30;60.70;;;;;;6170048;28;80775;-62
2021/09/02 02:11:38;;;;;;;12.00;7.38;;;22.30;60.70;;;;;;6167385;28;80382;-62
2021/09/02 02:14:38;;;;;;;17.80;7.28;;;22.30;60.60;;;;;;6166397;28;80475;-62
2021/09/02 02:17:39;;;;;;;12.70;7.75;;;22.30;60.70;;;;;;6156251;28;80360;-62
2021/09/02 02:20:39;;;;;;;12.07;7.32;;;22.20;60.80;;;;;;6169150;28;81388;-62
2021/09/02 02:23:39;;;;;;;11.75;7.50;;;22.20;61.10;;;;;;6169554;28;80188;-62
2021/09/02 02:26:40;;;;;;;9.73;6.30;;;22.30;60.70;;;;;;6169866;28;81624;-62
2021/09/02 02:29:40;;;;;;;13.88;7.65;;;22.30;60.70;;;;;;6157502;28;80444;-62
2021/09/02 02:32:41;;;;;;;12.38;7.40;;;22.20;60.70;;;;;;6164667;28;81722;-62
2021/09/02 02:35:41;;;;;;;13.52;7.35;;;22.30;60.50;;;;;;6160126;28;80984;-62
2021/09/02 02:38:42;;;;;;;12.80;7.18;;;22.30;60.50;;;;;;6165441;28;80602;-62
2021/09/02 02:41:42;;;;;;;14.27;7.63;;;22.30;60.50;;;;;;6168962;28;80509;-62
2021/09/02 02:44:43;;;;;;;12.07;6.97;;;22.20;60.60;;;;;;6157239;28;81439;-62
2021/09/02 02:47:43;;;;;;;11.32;7.18;;;22.20;60.70;;;;;;6168799;28;80937;-62
2021/09/02 02:50:44;;;;;;;11.23;6.93;;;22.20;60.60;;;;;;6161835;28;80891;-62
2021/09/02 02:53:44;;;;;;;10.93;6.95;;;22.30;60.70;;;;;;6161184;28;80702;-62
2021/09/02 02:56:45;;;;;;;10.85;6.45;;;22.30;60.70;;;;;;6167881;28;81363;-62
2021/09/02 02:59:45;;;;;;;12.68;7.40;;;22.30;60.50;;;;;;6169999;28;80568;-61
2021/09/02 03:02:46;;;;;;;11.98;7.05;;;22.30;60.70;;;;;;6166742;28;80627;-62
2021/09/02 03:05:46;;;;;;;13.80;7.53;;;22.30;60.80;;;;;;6173274;28;82358;-61
2021/09/02 03:08:46;;;;;;;11.63;7.18;;;22.30;60.50;;;;;;6163581;28;80567;-62
2021/09/02 03:11:47;;;;;;;11.25;7.05;;;22.20;60.50;;;;;;6165775;28;80473;-62
2021/09/02 03:14:47;;;;;;;11.93;6.68;;;22.30;60.70;;;;;;6161464;28;80891;-61
2021/09/02 03:17:49;;;;;;;9.52;6.88;;;22.20;60.60;;;;;;6154373;28;80770;-62
2021/09/02 03:20:50;;;;;;;10.57;6.88;;;22.30;60.70;;;;;;6172670;28;80430;-62
2021/09/02 03:23:50;;;;;;;11.07;7.25;;;22.20;60.70;;;;;;6171783;28;80455;-62
2021/09/02 03:26:51;;;;;;;11.18;6.75;;;22.20;60.60;;;;;;6155627;28;80404;-62
2021/09/02 03:29:51;;;;;;;12.05;7.68;;;22.30;60.70;;;;;;6146528;28;80738;-62
2021/09/02 03:32:51;;;;;;;10.55;6.82;;;22.20;60.60;;;;;;6156836;28;80124;-62
2021/09/02 03:35:52;;;;;;;12.10;7.30;;;22.30;60.50;;;;;;6156787;28;80892;-62
2021/09/02 03:38:52;;;;;;;11.25;7.10;;;22.20;60.70;;;;;;6155317;28;80513;-62
2021/09/02 03:41:53;;;;;;;10.20;6.38;;;22.20;60.40;;;;;;6174145;28;81220;-63
2021/09/02 03:44:53;;;;;;;11.90;7.13;;;22.20;60.60;;;;;;6158579;28;81358;-63
2021/09/02 03:47:54;;;;;;;10.95;7.18;;;22.20;60.40;;;;;;6149266;28;81268;-62
2021/09/02 03:50:54;;;;;;;12.82;7.40;;;22.20;60.40;;;;;;6169260;28;80329;-62
2021/09/02 03:53:55;;;;;;;12.75;6.70;;;22.20;60.60;;;;;;6165132;28;80926;-63
2021/09/02 03:56:55;;;;;;;12.27;7.25;;;22.20;60.50;;;;;;6160773;28;80470;-62
2021/09/02 03:59:56;;;;;;;13.52;7.18;;;22.30;60.70;;;;;;6163003;28;82466;-62
2021/09/02 04:02:56;;;;;;;14.18;7.30;;;22.20;60.60;;;;;;6160498;28;81360;-62
2021/09/02 04:05:57;;;;;;;10.02;6.63;;;22.20;60.40;;;;;;6162467;28;80218;-64
2021/09/02 04:08:57;;;;;;;9.85;6.93;;;22.20;60.50;;;;;;6166388;28;82198;-67
2021/09/02 04:11:58;;;;;;;9.35;6.30;;;22.20;60.60;;;;;;6175171;28;82655;-64
2021/09/02 04:14:58;;;;;;;13.38;7.30;;;22.20;60.80;;;;;;6157329;28;80384;-62
2021/09/02 04:17:58;;;;;;;10.80;6.97;;;22.20;61.10;;;;;;6176567;28;80463;-62
2021/09/02 04:20:59;;;;;;;10.38;6.45;;;22.20;60.80;;;;;;6150434;28;80731;-62
2021/09/02 04:24:00;;;;;;;11.00;6.70;;;22.20;60.70;;;;;;6159834;28;80287;-62
2021/09/02 04:27:00;;;;;;;11.80;6.95;;;22.20;60.70;;;;;;6157897;28;81994;-62
2021/09/02 04:30:01;;;;;;;12.63;7.50;;;22.20;61.10;;;;;;6150571;28;80578;-62
2021/09/02 04:33:01;;;;;;;12.80;6.10;;;22.20;61.70;;;;;;6160469;28;81709;-62
2021/09/02 04:36:02;;;;;;;11.75;7.22;;;22.20;61.80;;;;;;6166398;28;82725;-62
2021/09/02 04:39:02;;;;;;;12.32;7.45;;;22.20;61.90;;;;;;6166752;28;80671;-62
2021/09/02 04:42:03;;;;;;;14.15;8.75;;;22.10;61.70;;;;;;6149453;28;80797;-61
2021/09/02 04:45:03;;;;;;;13.85;7.57;;;22.10;62.00;;;;;;6170717;28;80551;-61
2021/09/02 04:48:04;;;;;;;17.70;8.45;;;22.20;63.80;;;;;;6169134;28;80302;-62
2021/09/02 04:51:04;;;;;;;15.15;8.05;;;22.20;63.20;;;;;;6160228;28;80294;-62
2021/09/02 04:54:05;;;;;;;13.15;8.10;;;22.20;63.10;;;;;;6165505;28;80579;-62
2021/09/02 04:57:05;;;;;;;14.57;7.80;;;22.20;63.40;;;;;;6175882;28;81917;-62
2021/09/02 05:00:06;;;;;;;16.70;9.00;;;22.20;63.20;;;;;;6174138;28;80436;-62
2021/09/02 05:03:06;;;;;;;16.70;8.77;;;22.20;63.30;;;;;;6160783;28;81035;-61
2021/09/02 05:06:07;;;;;;;14.25;8.05;;;22.20;63.20;;;;;;6162169;28;80477;-63
2021/09/02 05:09:07;;;;;;;16.67;9.00;;;22.20;63.10;;;;;;6160323;28;80825;-63
2021/09/02 05:12:08;;;;;;;17.80;8.43;;;22.20;63.10;;;;;;6167170;28;80503;-63
2021/09/02 05:15:08;;;;;;;16.67;8.50;;;22.20;63.00;;;;;;6158767;28;80600;-64
2021/09/02 05:18:08;;;;;;;11.20;7.45;;;22.20;63.00;;;;;;6165000;28;80888;-62
2021/09/02 05:21:09;;;;;;;15.25;8.25;;;22.20;63.20;;;;;;6153510;28;80559;-63
2021/09/02 05:24:09;;;;;;;14.38;7.93;;;22.20;63.60;;;;;;6161410;28;80511;-62
2021/09/02 05:27:10;;;;;;;15.48;7.97;;;22.20;63.50;;;;;;6159617;28;80800;-64
2021/09/02 05:30:11;;;;;;;15.45;7.78;;;22.20;63.10;;;;;;6156915;28;80688;-64
2021/09/02 05:33:11;;;;;;;16.23;7.72;;;22.30;62.80;;;;;;6156375;28;80351;-64
2021/09/02 05:36:12;;;;;;;15.68;7.28;;;22.20;62.60;;;;;;6174445;28;80642;-63
2021/09/02 05:39:12;;;;;;;12.38;7.53;;;22.20;62.60;;;;;;6160363;28;80424;-64
2021/09/02 05:42:13;;;;;;;12.75;7.85;;;22.20;62.50;;;;;;6158435;28;80486;-63
2021/09/02 05:45:13;;;;;;;14.30;7.60;;;22.20;62.60;;;;;;6160901;28;80311;-63
2021/09/02 05:48:14;;;;;;;15.55;8.20;;;22.20;62.30;;;;;;6169681;28;81376;-63
2021/09/02 05:51:14;;;;;;;16.13;7.63;;;22.20;62.60;;;;;;6174667;28;80504;-63
2021/09/02 05:54:15;;;;;;;13.38;7.82;;;22.20;61.10;;;;;;6173694;28;81597;-62
2021/09/02 05:57:15;;;;;;;14.00;7.60;;;22.20;61.20;;;;;;6165029;28;81159;-65
2021/09/02 06:00:16;;;;;;;12.10;7.70;;;22.20;61.40;;;;;;6164600;28;84457;-65
2021/09/02 06:03:16;;;;;;;14.90;7.78;;;22.30;61.30;;;;;;6161380;28;80691;-65
2021/09/02 06:06:17;;;;;;;15.25;7.05;;;22.20;61.30;;;;;;6156229;28;80401;-65
2021/09/02 06:09:17;;;;;;;17.67;7.72;;;22.20;61.10;;;;;;6157078;28;81028;-63
2021/09/02 06:12:18;;;;;;;8.88;6.22;;;22.30;61.20;;;;;;6163811;28;80112;-63
2021/09/02 06:15:18;;;;;;;12.45;7.40;;;22.30;61.10;;;;;;6173414;28;82655;-63
2021/09/02 06:18:19;;;;;;;13.43;7.05;;;22.30;61.00;;;;;;6176367;28;80350;-64
2021/09/02 06:21:19;;;;;;;10.65;6.82;;;22.30;61.00;;;;;;6174583;28;80402;-63
2021/09/02 06:24:20;;;;;;;11.35;6.72;;;22.30;61.00;;;;;;6156788;28;81673;-63
2021/09/02 06:27:20;;;;;;;12.93;7.05;;;22.20;60.90;;;;;;6155233;28;81487;-63
2021/09/02 06:30:21;;;;;;;13.40;6.80;;;22.30;61.00;;;;;;6158034;28;81776;-63
2021/09/02 06:33:21;;;;;;;11.40;7.05;;;22.30;60.90;;;;;;6169028;28;80797;-64
2021/09/02 06:36:22;;;;;;;18.48;7.63;;;22.30;60.60;;;;;;6172431;28;80492;-64
2021/09/02 06:39:22;;;;;;;10.63;6.47;;;22.20;60.30;;;;;;6172718;28;81235;-64
2021/09/02 06:42:23;;;;;;;12.73;7.47;;;22.20;59.90;;;;;;6163159;28;80609;-64
2021/09/02 06:45:23;;;;;;;12.80;6.70;;;22.20;59.70;;;;;;6165069;28;81433;-64
2021/09/02 06:48:24;;;;;;;11.15;6.70;;;22.20;59.20;;;;;;6168546;28;80832;-64
2021/09/02 06:51:24;;;;;;;10.50;6.43;;;22.20;59.00;;;;;;6163619;28;81064;-64
2021/09/02 06:54:25;;;;;;;12.82;6.70;;;22.10;58.70;;;;;;6148523;28;82022;-64
2021/09/02 06:57:25;;;;;;;9.63;6.13;;;22.10;58.70;;;;;;6160536;28;80681;-64
2021/09/02 07:00:26;;;;;;;14.48;6.45;;;22.10;58.70;;;;;;6165219;28;81481;-64
2021/09/02 07:03:26;;;;;;;12.00;6.90;;;22.10;58.70;;;;;;6163140;28;80365;-64
2021/09/02 07:06:27;;;;;;;12.15;6.60;;;22.10;58.70;;;;;;6159707;28;80456;-64
2021/09/02 07:09:27;;;;;;;12.88;6.82;;;22.10;58.60;;;;;;6161191;28;84346;-63
2021/09/02 07:12:28;;;;;;;11.18;6.13;;;22.10;58.60;;;;;;6163924;28;83236;-63
2021/09/02 07:15:28;;;;;;;12.60;6.88;;;22.10;58.60;;;;;;6166701;28;80811;-64
2021/09/02 07:18:29;;;;;;;8.80;6.05;;;22.10;58.30;;;;;;6168765;28;80561;-65
2021/09/02 07:21:29;;;;;;;9.93;6.10;;;22.20;58.30;;;;;;6158154;28;80482;-64
2021/09/02 07:24:30;;;;;;;11.73;6.90;;;22.20;58.20;;;;;;6162622;28;80591;-63
2021/09/02 07:27:30;;;;;;;9.88;6.07;;;22.20;58.10;;;;;;6167444;28;81501;-63
2021/09/02 07:30:31;;;;;;;8.18;5.50;;;22.20;58.20;;;;;;6165966;28;81232;-63
2021/09/02 07:33:31;;;;;;;12.50;5.97;;;22.20;58.30;;;;;;6169474;28;80588;-63
2021/09/02 07:36:32;;;;;;;11.77;6.43;;;22.20;58.40;;;;;;6156743;28;80664;-62
2021/09/02 07:39:32;;;;;;;11.02;6.35;;;22.20;58.60;;;;;;6157792;28;80563;-62
2021/09/02 07:42:32;;;;;;;15.88;7.10;;;22.20;58.90;;;;;;6157167;28;81278;-63
2021/09/02 07:45:33;;;;;;;11.48;7.10;;;22.20;58.90;;;;;;6162945;28;81287;-62
2021/09/02 07:48:33;;;;;;;9.98;6.55;;;22.20;58.90;;;;;;6157014;28;80634;-63
2021/09/02 07:51:34;;;;;;;14.05;7.38;;;22.20;58.90;;;;;;6162045;28;80644;-63
2021/09/02 07:54:34;;;;;;;13.30;6.50;;;22.30;59.00;;;;;;6159634;28;80255;-62
2021/09/02 07:57:35;;;;;;;12.93;6.72;;;22.20;58.80;;;;;;6157026;28;83696;-62
2021/09/02 08:00:37;;;;;;;11.77;6.75;;;22.30;58.70;;;;;;6150712;28;81302;-62
2021/09/02 08:03:37;;;;;;;12.57;6.72;;;22.30;58.70;;;;;;6164934;28;81003;-63
2021/09/02 08:06:38;;;;;;;11.35;6.90;;;22.30;58.50;;;;;;6164165;28;81242;-63
2021/09/02 08:09:38;;;;;;;10.98;6.43;;;22.30;58.50;;;;;;6157698;28;80840;-63
2021/09/02 08:12:39;;;;;;;10.18;5.88;;;22.30;58.30;;;;;;6162422;28;81787;-62
2021/09/02 08:15:39;;;;;;;10.10;5.85;;;22.30;58.20;;;;;;6160518;28;84638;-62
2021/09/02 08:18:40;;;;;;;10.60;6.53;;;22.30;58.20;;;;;;6161770;28;80706;-62
2021/09/02 08:21:40;;;;;;;10.68;6.35;;;22.30;58.00;;;;;;6162221;28;81242;-62
2021/09/02 08:24:41;;;;;;;9.55;5.60;;;22.30;58.00;;;;;;6158088;28;80277;-62
2021/09/02 08:27:41;;;;;;;12.25;5.72;;;22.30;57.90;;;;;;6158468;28;80904;-62
2021/09/02 08:30:42;;;;;;;11.15;6.35;;;22.40;57.90;;;;;;6160237;28;80607;-62
2021/09/02 08:33:42;;;;;;;9.73;5.85;;;22.40;57.60;;;;;;6158416;28;87468;-61
2021/09/02 08:36:42;;;;;;;11.95;6.80;;;22.40;57.90;;;;;;6153414;28;80406;-62
2021/09/02 08:39:43;;;;;;;10.38;5.85;;;22.40;57.70;;;;;;6157301;28;82303;-63
2021/09/02 08:42:43;;;;;;;8.68;5.93;;;22.40;57.60;;;;;;6158626;28;82374;-61
2021/09/02 08:45:44;;;;;;;9.88;6.38;;;22.40;57.50;;;;;;6161568;28;82366;-62
2021/09/02 08:48:44;;;;;;;10.35;6.28;;;22.40;57.40;;;;;;6161110;28;80451;-62
2021/09/02 08:51:45;;;;;;;9.02;5.80;;;22.40;57.40;;;;;;6156160;28;80527;-62
2021/09/02 08:54:47;;;;;;;10.85;6.63;;;22.40;57.50;;;;;;6159800;28;80804;-62
2021/09/02 08:57:48;;;;;;;8.05;5.13;;;22.40;57.20;;;;;;6165232;28;83292;-62
2021/09/02 09:00:48;;;;;;;10.35;6.20;;;22.40;56.90;;;;;;6160800;28;81478;-62
2021/09/02 09:03:49;;;;;;;9.27;5.80;;;22.40;56.90;;;;;;6161797;28;80451;-62
2021/09/02 09:06:50;;;;;;;10.93;6.25;;;22.40;56.70;;;;;;6152810;28;81820;-62
2021/09/02 09:09:51;;;;;;;11.07;6.00;;;22.40;56.60;;;;;;6156353;28;80658;-63
2021/09/02 09:12:52;;;;;;;8.35;5.80;;;22.40;56.50;;;;;;6159844;28;80897;-63
2021/09/02 09:15:52;;;;;;;7.85;5.15;;;22.40;56.50;;;;;;6160147;28;86827;-63
2021/09/02 09:18:53;;;;;;;9.55;6.10;;;22.50;56.50;;;;;;6164086;28;80655;-63
2021/09/02 09:21:53;;;;;;;8.65;5.32;;;22.40;56.40;;;;;;6159322;28;81185;-62
2021/09/02 09:24:54;;;;;;;11.00;5.60;;;22.50;56.50;;;;;;6157520;28;80993;-63
2021/09/02 09:27:54;;;;;;;9.40;5.50;;;22.50;56.20;;;;;;6156053;28;80366;-63
2021/09/02 09:30:55;;;;;;;8.68;5.65;;;22.50;56.20;;;;;;6153520;28;81117;-63
2021/09/02 09:33:55;;;;;;;8.60;5.55;;;22.50;56.10;;;;;;6155543;28;81767;-62
2021/09/02 09:36:56;;;;;;;10.40;5.85;;;22.50;56.10;;;;;;6156833;28;80642;-62
2021/09/02 09:39:56;;;;;;;8.98;5.60;;;22.50;56.00;;;;;;6162162;28;80251;-62
2021/09/02 09:42:57;;;;;;;8.25;5.13;;;22.50;56.10;;;;;;6158401;28;82039;-63
2021/09/02 09:45:58;;;;;;;8.32;5.75;;;22.50;56.10;;;;;;6160331;28;80730;-62
2021/09/02 09:48:59;;;;;;;7.57;5.55;;;22.50;56.20;;;;;;6161919;28;80480;-63
2021/09/02 09:51:59;;;;;;;10.05;5.35;;;22.50;56.10;;;;;;6159603;28;80235;-63
2021/09/02 09:55:00;;;;;;;10.30;6.05;;;22.60;55.80;;;;;;6166807;28;80784;-62
2021/09/02 09:58:00;;;;;;;10.73;5.15;;;22.50;55.50;;;;;;6158917;28;81234;-62
2021/09/02 10:01:01;;;;;;;10.85;5.97;;;22.60;55.40;;;;;;6158056;28;81425;-63
2021/09/02 10:04:02;;;;;;;8.60;5.63;;;22.60;55.40;;;;;;6164995;28;81147;-63
2021/09/02 10:07:02;;;;;;;7.82;5.80;;;22.60;55.50;;;;;;6160482;28;87730;-64
2021/09/02 10:10:03;;;;;;;8.73;5.93;;;22.60;55.50;;;;;;6158398;28;81147;-65
2021/09/02 10:13:03;;;;;;;8.48;6.50;;;22.60;55.40;;;;;;6157079;28;80689;-65
2021/09/02 10:16:04;;;;;;;11.27;7.20;;;22.60;55.30;;;;;;6158689;28;80660;-65
2021/09/02 10:19:04;;;;;;;15.25;8.45;;;22.60;55.50;;;;;;6155889;28;81214;-64
2021/09/02 10:22:05;;;;;;;15.45;10.05;;;22.60;55.50;;;;;;6155753;28;83912;-64
2021/09/02 10:25:05;;;;;;;21.63;10.80;;;22.60;55.40;;;;;;6155369;28;83002;-64
2021/09/02 10:28:06;;;;;;;16.80;10.45;;;22.60;55.40;;;;;;6152388;28;84311;-66
2021/09/02 10:31:06;;;;;;;15.75;10.40;;;22.60;55.20;;;;;;6155227;28;83428;-64
2021/09/02 10:34:07;;;;;;;20.23;9.50;;;22.60;55.20;;;;;;6157095;28;83293;-64
2021/09/02 10:37:07;;;;;;;17.70;9.98;;;22.60;54.90;;;;;;6151165;28;83052;-65
2021/09/02 10:40:08;;;;;;;16.05;9.93;;;22.60;54.90;;;;;;6168238;28;83467;-64
2021/09/02 10:43:09;;;;;;;14.70;9.45;;;22.60;54.70;;;;;;6157082;28;82686;-63
2021/09/02 10:46:09;;;;;;;18.20;9.07;;;22.60;54.80;;;;;;6160026;28;82165;-64
2021/09/02 10:49:10;;;;;;;16.13;9.75;;;22.60;54.60;;;;;;6156820;28;83598;-63
2021/09/02 10:52:11;;;;;;;15.93;8.85;;;22.60;54.70;;;;;;6157955;28;81621;-63
2021/09/02 10:55:11;;;;;;;13.05;7.68;;;22.60;54.40;;;;;;6155069;28;80520;-63
2021/09/02 10:58:12;;;;;;;14.40;8.55;;;22.60;54.40;;;;;;6171430;28;82114;-63
2021/09/02 11:01:12;;;;;;;12.75;6.93;;;22.60;54.40;;;;;;6162334;28;80689;-63
2021/09/02 11:04:13;;;;;;;14.45;7.63;;;22.60;54.30;;;;;;6159344;28;81187;-63
2021/09/02 11:07:13;;;;;;;13.57;6.88;;;22.60;54.20;;;;;;6155729;28;81014;-63
2021/09/02 11:10:14;;;;;;;11.20;6.35;;;22.60;54.10;;;;;;6149576;28;80848;-64
2021/09/02 11:13:15;;;;;;;11.70;6.72;;;22.60;54.30;;;;;;6189279;28;81247;-64
2021/09/02 11:16:16;;;;;;;13.95;7.72;;;22.60;54.20;;;;;;6164002;28;81355;-63
2021/09/02 11:19:16;;;;;;;12.05;6.45;;;22.60;54.30;;;;;;6161934;28;80536;-63
2021/09/02 11:22:17;;;;;;;10.73;6.72;;;22.70;54.30;;;;;;6159934;28;81445;-62
2021/09/02 11:25:17;;;;;;;10.82;5.88;;;22.60;53.90;;;;;;6159211;28;81460;-62
2021/09/02 11:28:18;;;;;;;12.60;5.90;;;22.60;53.70;;;;;;6158450;28;80738;-64
2021/09/02 11:31:19;;;;;;;9.60;5.63;;;22.60;53.80;;;;;;6178996;28;83240;-63
2021/09/02 11:34:19;;;;;;;11.95;5.85;;;22.60;53.70;;;;;;6161519;28;80896;-63
2021/09/02 11:37:20;;;;;;;14.25;6.00;;;22.60;53.60;;;;;;6161945;28;80707;-64
2021/09/02 11:40:20;;;;;;;8.30;5.38;;;22.60;53.30;;;;;;6159196;28;82003;-64
2021/09/02 11:43:21;;;;;;;7.50;5.25;;;22.50;53.30;;;;;;6160518;28;80113;-64
2021/09/02 11:46:21;;;;;;;14.55;5.57;;;22.50;53.10;;;;;;6156905;28;80719;-64
2021/09/02 11:49:22;;;;;;;7.57;5.30;;;22.50;53.10;;;;;;6169686;28;80311;-64
2021/09/02 11:52:22;;;;;;;7.95;4.93;;;22.50;53.10;;;;;;6157254;28;80627;-63
2021/09/02 11:55:23;;;;;;;7.70;4.63;;;22.50;53.40;;;;;;6158282;28;80486;-63
2021/09/02 11:58:23;;;;;;;10.38;5.03;;;22.50;53.70;;;;;;6153235;28;81380;-64
2021/09/02 12:01:24;;;;;;;7.68;4.28;;;22.50;53.60;;;;;;6160778;28;83264;-63
2021/09/02 12:04:24;;;;;;;10.77;5.40;;;22.50;53.40;;;;;;6157714;28;81765;-64
2021/09/02 12:07:24;;;;;;;6.82;4.60;;;22.50;53.40;;;;;;6153317;28;81238;-64
2021/09/02 12:10:25;;;;;;;9.45;4.43;;;22.50;53.60;;;;;;6176771;28;80658;-64
2021/09/02 12:13:25;;;;;;;7.40;4.72;;;22.50;53.80;;;;;;6160395;28;81362;-64
2021/09/02 12:16:26;;;;;;;6.30;4.22;;;22.50;53.90;;;;;;6150023;28;80936;-63
2021/09/02 12:19:26;;;;;;;7.85;4.45;;;22.50;53.80;;;;;;6154546;28;81425;-65
2021/09/02 12:22:28;;;;;;;9.13;4.88;;;22.60;54.00;;;;;;6154176;28;81261;-64
2021/09/02 12:25:28;;;;;;;9.27;4.35;;;22.60;53.80;;;;;;6157188;28;81881;-65
2021/09/02 12:28:29;;;;;;;8.45;4.82;;;22.60;53.60;;;;;;6160395;28;80344;-64
2021/09/02 12:31:32;;;;;;;6.38;4.07;;;22.60;54.00;;;;;;6174743;28;80517;-65
2021/09/02 12:34:33;;;;;;;7.13;5.38;;;22.60;53.70;;;;;;6161481;28;80578;-67
2021/09/02 12:37:33;;;;;;;9.02;4.32;;;22.60;53.40;;;;;;6172537;28;80415;-65
2021/09/02 12:40:34;;;;;;;8.43;4.38;;;22.60;53.30;;;;;;6159826;28;80478;-66
2021/09/02 12:43:34;;;;;;;9.35;6.22;;;22.50;53.40;;;;;;6161958;28;81673;-65
2021/09/02 12:46:35;;;;;;;10.57;5.30;;;22.50;51.80;;;;;;6161842;28;80447;-65
2021/09/02 12:49:35;;;;;;;8.88;5.15;;;22.60;51.80;;;;;;6163199;28;82085;-64
2021/09/02 12:52:36;;;;;;;8.30;5.22;;;22.50;51.80;;;;;;6162501;28;80238;-64
2021/09/02 12:55:36;;;;;;;8.23;4.80;;;22.60;52.30;;;;;;6169613;28;81228;-65
2021/09/02 12:58:37;;;;;;;7.10;4.68;;;22.60;52.40;;;;;;6169288;28;80886;-65
2021/09/02 13:01:37;;;;;;;6.53;4.82;;;22.60;51.80;;;;;;6176479;28;81076;-64
2021/09/02 13:04:37;;;;;;;8.82;4.65;;;22.50;51.90;;;;;;6169521;28;80172;-64
2021/09/02 13:07:38;;;;;;;9.35;4.30;;;22.50;51.50;;;;;;6172932;28;80859;-65
2021/09/02 13:10:38;;;;;;;8.40;4.00;;;22.50;51.30;;;;;;6165565;28;81732;-65
2021/09/02 13:13:39;;;;;;;7.05;4.20;;;22.60;50.70;;;;;;6170123;28;81668;-64
2021/09/02 13:16:43;;;;;;;5.82;4.07;;;22.60;50.60;;;;;;6171497;28;81344;-65
2021/09/02 13:19:43;;;;;;;6.22;4.15;;;22.60;50.70;;;;;;6159388;28;80912;-65
2021/09/02 13:22:44;;;;;;;9.13;5.07;;;22.50;51.00;;;;;;6164512;28;81514;-64
2021/09/02 13:25:50;;;;;;;7.53;4.35;;;22.50;50.60;;;;;;6162846;28;81094;-64
2021/09/02 13:28:50;;;;;;;9.50;4.30;;;22.50;50.90;;;;;;6162833;28;80403;-64
2021/09/02 13:31:51;;;;;;;7.50;4.63;;;22.60;50.80;;;;;;6162038;28;80525;-63
2021/09/02 13:34:51;;;;;;;6.63;4.60;;;22.60;51.00;;;;;;6165640;28;81228;-64
2021/09/02 13:37:52;;;;;;;7.80;4.13;;;22.60;51.30;;;;;;6174877;28;80359;-66
2021/09/02 13:40:52;;;;;;;7.18;3.97;;;22.50;51.00;;;;;;6159906;28;81541;-64
2021/09/02 13:43:53;;;;;;;8.18;4.03;;;22.50;51.30;;;;;;6167891;28;81626;-62
2021/09/02 13:46:53;;;;;;;8.27;4.15;;;22.50;51.60;;;;;;6159609;28;81215;-63
2021/09/02 13:49:54;;;;;;;8.43;4.40;;;22.50;52.00;;;;;;6173875;28;80852;-63
2021/09/02 13:52:54;;;;;;;9.75;4.10;;;22.50;52.40;;;;;;6158673;28;80564;-63
2021/09/02 13:55:55;;;;;;;8.23;4.05;;;22.60;52.40;;;;;;6200342;28;82736;-63
2021/09/02 13:58:55;;;;;;;8.68;4.35;;;22.60;52.70;;;;;;6167471;28;80551;-64
2021/09/02 14:01:56;;;;;;;6.03;4.50;;;22.60;52.30;;;;;;6171124;28;81312;-65
2021/09/02 14:04:56;;;;;;;9.85;4.85;;;22.50;52.30;;;;;;6167173;28;83118;-64
2021/09/02 14:07:57;;;;;;;8.60;4.03;;;22.60;52.40;;;;;;6172627;28;81552;-65
2021/09/02 14:10:57;;;;;;;6.82;4.18;;;22.60;52.10;;;;;;6161374;28;86111;-64
2021/09/02 14:13:58;;;;;;;9.85;4.13;;;22.60;52.00;;;;;;6162196;28;80324;-64
2021/09/02 14:16:58;;;;;;;7.13;3.85;;;22.60;52.10;;;;;;6158669;28;80716;-63
2021/09/02 14:19:59;;;;;;;9.75;4.22;;;22.60;52.00;;;;;;6163163;28;80159;-64
2021/09/02 14:22:59;;;;;;;9.20;3.95;;;22.60;52.10;;;;;;6167498;28;81837;-65
2021/09/02 14:26:00;;;;;;;5.22;4.00;;;22.50;52.10;;;;;;6168293;28;80455;-64
2021/09/02 14:29:00;;;;;;;9.57;4.25;;;22.60;52.30;;;;;;6168322;28;80891;-63
2021/09/02 14:32:01;;;;;;;7.28;4.20;;;22.50;52.30;;;;;;6167770;28;82392;-64
2021/09/02 14:35:01;;;;;;;6.30;3.90;;;22.60;52.20;;;;;;6169074;28;80389;-63
2021/09/02 14:38:01;;;;;;;8.25;4.95;;;22.50;52.10;;;;;;6157911;28;80836;-64
2021/09/02 14:41:02;;;;;;;7.55;4.35;;;22.50;52.20;;;;;;6160550;28;80524;-64
2021/09/02 14:44:02;;;;;;;9.25;4.35;;;22.50;52.00;;;;;;6165694;28;81377;-63
2021/09/02 14:47:04;;;;;;;7.82;4.15;;;22.50;52.20;;;;;;6165490;28;80183;-63
2021/09/02 14:50:05;;;;;;;7.35;4.47;;;22.50;51.90;;;;;;6162945;28;81316;-63
2021/09/02 14:53:05;;;;;;;7.65;4.22;;;22.50;52.00;;;;;;6161227;28;80248;-64
2021/09/02 14:56:05;;;;;;;6.18;3.90;;;22.50;52.00;;;;;;6162381;28;80274;-63
2021/09/02 14:59:06;;;;;;;8.57;4.40;;;22.50;51.80;;;;;;6153135;28;80765;-63
2021/09/02 15:02:08;;;;;;;7.20;4.35;;;22.50;51.90;;;;;;6163340;28;80851;-63
2021/09/02 15:05:09;;;;;;;11.60;4.63;;;22.50;51.90;;;;;;6160454;28;81273;-64
2021/09/02 15:08:09;;;;;;;6.72;3.67;;;22.50;52.40;;;;;;6157780;28;81003;-64
2021/09/02 15:11:10;;;;;;;8.57;5.38;;;22.40;52.70;;;;;;6151860;28;81151;-64
2021/09/02 15:14:10;;;;;;;11.80;5.45;;;22.40;52.60;;;;;;6156275;28;80615;-64
2021/09/02 15:17:11;;;;;;;19.05;5.72;;;22.40;52.70;;;;;;6166086;28;80618;-65
2021/09/02 15:20:11;;;;;;;9.98;5.43;;;22.50;53.50;;;;;;6139257;28;82107;-63
2021/09/02 15:23:12;;;;;;;12.20;4.93;;;22.50;52.80;;;;;;6174640;28;80528;-63
2021/09/02 15:26:12;;;;;;;8.23;5.05;;;22.50;53.50;;;;;;6156038;28;80715;-63
2021/09/02 15:29:13;;;;;;;8.88;5.13;;;22.50;53.60;;;;;;6163297;28;80873;-64
2021/09/02 15:32:13;;;;;;;6.50;4.22;;;22.50;54.10;;;;;;6158145;28;80600;-64